sensor_id;sensor_type;location;lat;lon;timestamp;temperature;humidity
73141;SHT31;61339;50.558;4.696;2023-07-20T00:00:58;16.72;70.61
73141;SHT31;61339;50.558;4.696;2023-07-20T00:03:23;16.76;70.60
73141;SHT31;61339;50.558;4.696;2023-07-20T00:05:51;16.79;70.67
73141;SHT31;61339;50.558;4.696;2023-07-20T00:08:18;16.83;70.51
73141;SHT31;61339;50.558;4.696;2023-07-20T00:10:44;16.76;70.64
73141;SHT31;61339;50.558;4.696;2023-07-20T00:13:11;16.83;70.48
73141;SHT31;61339;50.558;4.696;2023-07-20T00:15:37;16.76;70.75
73141;SHT31;61339;50.558;4.696;2023-07-20T00:18:05;16.86;70.72
73141;SHT31;61339;50.558;4.696;2023-07-20T00:20:31;16.83;70.77
73141;SHT31;61339;50.558;4.696;2023-07-20T00:22:57;16.86;70.82
73141;SHT31;61339;50.558;4.696;2023-07-20T00:25:23;16.79;71.07
73141;SHT31;61339;50.558;4.696;2023-07-20T00:27:49;16.76;71.20
73141;SHT31;61339;50.558;4.696;2023-07-20T00:30:15;16.86;71.08
73141;SHT31;61339;50.558;4.696;2023-07-20T00:32:42;16.79;71.19
73141;SHT31;61339;50.558;4.696;2023-07-20T00:35:07;16.89;71.16
73141;SHT31;61339;50.558;4.696;2023-07-20T00:37:33;16.90;70.97
73141;SHT31;61339;50.558;4.696;2023-07-20T00:39:58;16.93;70.98
73141;SHT31;61339;50.558;4.696;2023-07-20T00:42:23;16.95;70.92
73141;SHT31;61339;50.558;4.696;2023-07-20T00:44:49;16.96;70.95
73141;SHT31;61339;50.558;4.696;2023-07-20T00:47:14;16.95;71.05
73141;SHT31;61339;50.558;4.696;2023-07-20T00:49:40;16.95;71.09
73141;SHT31;61339;50.558;4.696;2023-07-20T00:52:06;16.96;71.13
73141;SHT31;61339;50.558;4.696;2023-07-20T00:54:32;16.98;71.24
73141;SHT31;61339;50.558;4.696;2023-07-20T00:57:00;16.99;71.34
73141;SHT31;61339;50.558;4.696;2023-07-20T00:59:26;16.99;71.59
73141;SHT31;61339;50.558;4.696;2023-07-20T01:01:52;16.95;71.76
73141;SHT31;61339;50.558;4.696;2023-07-20T01:04:18;16.96;71.91
73141;SHT31;61339;50.558;4.696;2023-07-20T01:09:45;16.96;72.27
73141;SHT31;61339;50.558;4.696;2023-07-20T01:12:39;17.05;72.13
73141;SHT31;61339;50.558;4.696;2023-07-20T01:15:06;17.02;72.19
73141;SHT31;61339;50.558;4.696;2023-07-20T01:17:33;17.02;72.23
73141;SHT31;61339;50.558;4.696;2023-07-20T01:19:58;16.99;72.40
73141;SHT31;61339;50.558;4.696;2023-07-20T01:25:11;16.95;73.30
73141;SHT31;61339;50.558;4.696;2023-07-20T01:30:36;16.96;73.56
73141;SHT31;61339;50.558;4.696;2023-07-20T01:33:08;16.99;73.66
73141;SHT31;61339;50.558;4.696;2023-07-20T01:35:34;16.95;74.56
73141;SHT31;61339;50.558;4.696;2023-07-20T01:38:01;16.93;75.63
73141;SHT31;61339;50.558;4.696;2023-07-20T01:40:26;16.90;75.38
73141;SHT31;61339;50.558;4.696;2023-07-20T01:42:52;16.92;75.59
73141;SHT31;61339;50.558;4.696;2023-07-20T01:45:18;16.93;75.59
73141;SHT31;61339;50.558;4.696;2023-07-20T01:47:44;16.89;75.63
73141;SHT31;61339;50.558;4.696;2023-07-20T01:50:10;16.90;75.72
73141;SHT31;61339;50.558;4.696;2023-07-20T01:52:35;16.92;75.63
73141;SHT31;61339;50.558;4.696;2023-07-20T01:55:01;16.95;75.63
73141;SHT31;61339;50.558;4.696;2023-07-20T01:57:26;16.93;75.58
73141;SHT31;61339;50.558;4.696;2023-07-20T01:59:52;16.96;75.51
73141;SHT31;61339;50.558;4.696;2023-07-20T02:02:18;16.93;75.53
73141;SHT31;61339;50.558;4.696;2023-07-20T02:04:43;16.95;75.64
73141;SHT31;61339;50.558;4.696;2023-07-20T02:07:09;16.96;75.65
73141;SHT31;61339;50.558;4.696;2023-07-20T02:09:34;16.99;75.62
73141;SHT31;61339;50.558;4.696;2023-07-20T02:11:59;17.02;75.59
73141;SHT31;61339;50.558;4.696;2023-07-20T02:14:25;16.98;75.59
73141;SHT31;61339;50.558;4.696;2023-07-20T02:16:51;16.95;75.68
73141;SHT31;61339;50.558;4.696;2023-07-20T02:19:17;16.95;75.84
73141;SHT31;61339;50.558;4.696;2023-07-20T02:21:43;16.93;75.86
73141;SHT31;61339;50.558;4.696;2023-07-20T02:24:08;16.92;76.04
73141;SHT31;61339;50.558;4.696;2023-07-20T02:26:33;16.89;76.11
73141;SHT31;61339;50.558;4.696;2023-07-20T02:28:59;16.89;76.30
73141;SHT31;61339;50.558;4.696;2023-07-20T02:31:24;16.93;76.08
73141;SHT31;61339;50.558;4.696;2023-07-20T02:33:49;16.89;76.19
73141;SHT31;61339;50.558;4.696;2023-07-20T02:36:15;16.90;76.18
73141;SHT31;61339;50.558;4.696;2023-07-20T02:38:42;16.92;76.11
73141;SHT31;61339;50.558;4.696;2023-07-20T02:41:07;16.93;76.15
73141;SHT31;61339;50.558;4.696;2023-07-20T02:43:33;16.95;76.14
73141;SHT31;61339;50.558;4.696;2023-07-20T02:45:58;16.89;76.27
73141;SHT31;61339;50.558;4.696;2023-07-20T02:48:23;16.93;76.30
73141;SHT31;61339;50.558;4.696;2023-07-20T02:50:49;16.92;76.41
73141;SHT31;61339;50.558;4.696;2023-07-20T02:53:14;16.88;76.45
73141;SHT31;61339;50.558;4.696;2023-07-20T02:55:42;16.88;76.66
73141;SHT31;61339;50.558;4.696;2023-07-20T02:58:11;16.88;76.62
73141;SHT31;61339;50.558;4.696;2023-07-20T03:00:41;16.88;76.70
73141;SHT31;61339;50.558;4.696;2023-07-20T03:03:07;16.88;76.84
73141;SHT31;61339;50.558;4.696;2023-07-20T03:05:34;16.83;76.91
73141;SHT31;61339;50.558;4.696;2023-07-20T03:08:00;16.82;77.06
73141;SHT31;61339;50.558;4.696;2023-07-20T03:10:27;16.79;77.08
73141;SHT31;61339;50.558;4.696;2023-07-20T03:12:53;16.68;77.47
73141;SHT31;61339;50.558;4.696;2023-07-20T03:15:18;16.58;77.95
73141;SHT31;61339;50.558;4.696;2023-07-20T03:17:44;16.51;78.36
73141;SHT31;61339;50.558;4.696;2023-07-20T03:20:10;16.48;78.54
73141;SHT31;61339;50.558;4.696;2023-07-20T03:22:38;16.47;78.72
73141;SHT31;61339;50.558;4.696;2023-07-20T03:25:04;16.47;78.71
73141;SHT31;61339;50.558;4.696;2023-07-20T03:27:29;16.47;78.69
73141;SHT31;61339;50.558;4.696;2023-07-20T03:29:55;16.47;78.73
73141;SHT31;61339;50.558;4.696;2023-07-20T03:32:20;16.49;78.77
73141;SHT31;61339;50.558;4.696;2023-07-20T03:34:46;16.45;78.88
73141;SHT31;61339;50.558;4.696;2023-07-20T03:37:12;16.38;79.03
73141;SHT31;61339;50.558;4.696;2023-07-20T03:39:38;16.38;79.16
73141;SHT31;61339;50.558;4.696;2023-07-20T03:42:03;16.35;79.25
73141;SHT31;61339;50.558;4.696;2023-07-20T03:44:29;16.41;79.11
73141;SHT31;61339;50.558;4.696;2023-07-20T03:46:55;16.38;79.19
73141;SHT31;61339;50.558;4.696;2023-07-20T03:49:20;16.45;79.10
73141;SHT31;61339;50.558;4.696;2023-07-20T03:51:45;16.42;79.11
73141;SHT31;61339;50.558;4.696;2023-07-20T03:54:11;16.37;79.22
73141;SHT31;61339;50.558;4.696;2023-07-20T03:56:36;16.37;79.34
73141;SHT31;61339;50.558;4.696;2023-07-20T03:59:02;16.35;79.51
73141;SHT31;61339;50.558;4.696;2023-07-20T04:01:27;16.30;79.66
73141;SHT31;61339;50.558;4.696;2023-07-20T04:03:52;16.31;79.75
73141;SHT31;61339;50.558;4.696;2023-07-20T04:06:18;16.34;79.65
73141;SHT31;61339;50.558;4.696;2023-07-20T04:08:44;16.38;79.43
73141;SHT31;61339;50.558;4.696;2023-07-20T04:11:09;16.47;79.35
73141;SHT31;61339;50.558;4.696;2023-07-20T04:13:35;16.48;79.26
73141;SHT31;61339;50.558;4.696;2023-07-20T04:16:00;16.52;79.13
73141;SHT31;61339;50.558;4.696;2023-07-20T04:18:26;16.52;79.18
73141;SHT31;61339;50.558;4.696;2023-07-20T04:20:51;16.57;79.10
73141;SHT31;61339;50.558;4.696;2023-07-20T04:23:16;16.57;79.07
73141;SHT31;61339;50.558;4.696;2023-07-20T04:25:43;16.59;79.10
73141;SHT31;61339;50.558;4.696;2023-07-20T04:28:09;16.64;79.06
73141;SHT31;61339;50.558;4.696;2023-07-20T04:30:38;16.67;78.94
73141;SHT31;61339;50.558;4.696;2023-07-20T04:33:04;16.69;78.93
73141;SHT31;61339;50.558;4.696;2023-07-20T04:35:47;16.75;78.74
73141;SHT31;61339;50.558;4.696;2023-07-20T04:38:13;16.69;78.88
73141;SHT31;61339;50.558;4.696;2023-07-20T04:40:41;16.67;78.93
73141;SHT31;61339;50.558;4.696;2023-07-20T04:43:06;16.58;79.31
73141;SHT31;61339;50.558;4.696;2023-07-20T04:45:32;16.57;79.62
73141;SHT31;61339;50.558;4.696;2023-07-20T04:47:57;16.61;79.48
73141;SHT31;61339;50.558;4.696;2023-07-20T04:50:23;16.61;79.38
73141;SHT31;61339;50.558;4.696;2023-07-20T04:52:50;16.65;79.35
73141;SHT31;61339;50.558;4.696;2023-07-20T04:55:16;16.72;79.23
73141;SHT31;61339;50.558;4.696;2023-07-20T04:57:41;16.78;78.93
73141;SHT31;61339;50.558;4.696;2023-07-20T05:00:07;16.78;78.86
73141;SHT31;61339;50.558;4.696;2023-07-20T05:02:32;16.79;78.94
73141;SHT31;61339;50.558;4.696;2023-07-20T05:04:58;16.83;78.97
73141;SHT31;61339;50.558;4.696;2023-07-20T05:07:23;16.86;78.86
73141;SHT31;61339;50.558;4.696;2023-07-20T05:09:48;16.85;78.74
73141;SHT31;61339;50.558;4.696;2023-07-20T05:12:14;16.85;78.92
73141;SHT31;61339;50.558;4.696;2023-07-20T05:14:39;16.88;78.82
73141;SHT31;61339;50.558;4.696;2023-07-20T05:17:05;16.93;78.86
73141;SHT31;61339;50.558;4.696;2023-07-20T05:19:30;16.96;78.72
73141;SHT31;61339;50.558;4.696;2023-07-20T05:21:56;17.02;78.60
73141;SHT31;61339;50.558;4.696;2023-07-20T05:24:21;17.08;78.50
73141;SHT31;61339;50.558;4.696;2023-07-20T05:26:48;17.08;78.45
73141;SHT31;61339;50.558;4.696;2023-07-20T05:29:13;17.06;78.42
73141;SHT31;61339;50.558;4.696;2023-07-20T05:31:39;17.12;78.42
73141;SHT31;61339;50.558;4.696;2023-07-20T05:34:04;17.15;78.19
73141;SHT31;61339;50.558;4.696;2023-07-20T05:36:30;17.17;78.02
73141;SHT31;61339;50.558;4.696;2023-07-20T05:38:56;17.22;77.91
73141;SHT31;61339;50.558;4.696;2023-07-20T05:41:21;17.23;77.87
73141;SHT31;61339;50.558;4.696;2023-07-20T05:43:48;17.34;77.65
73141;SHT31;61339;50.558;4.696;2023-07-20T05:46:13;17.34;77.66
73141;SHT31;61339;50.558;4.696;2023-07-20T05:48:38;17.37;77.45
73141;SHT31;61339;50.558;4.696;2023-07-20T05:51:05;17.39;77.30
73141;SHT31;61339;50.558;4.696;2023-07-20T05:53:30;17.36;77.03
73141;SHT31;61339;50.558;4.696;2023-07-20T05:55:56;17.33;77.12
73141;SHT31;61339;50.558;4.696;2023-07-20T05:58:21;17.36;77.27
73141;SHT31;61339;50.558;4.696;2023-07-20T06:00:49;17.44;76.92
73141;SHT31;61339;50.558;4.696;2023-07-20T06:03:15;17.48;76.78
73141;SHT31;61339;50.558;4.696;2023-07-20T06:05:42;17.48;76.77
73141;SHT31;61339;50.558;4.696;2023-07-20T06:08:07;17.57;76.62
73141;SHT31;61339;50.558;4.696;2023-07-20T06:10:33;17.58;76.51
73141;SHT31;61339;50.558;4.696;2023-07-20T06:12:58;17.67;76.33
73141;SHT31;61339;50.558;4.696;2023-07-20T06:15:28;17.71;75.94
73141;SHT31;61339;50.558;4.696;2023-07-20T06:17:55;17.71;75.86
73141;SHT31;61339;50.558;4.696;2023-07-20T06:20:22;17.68;75.69
73141;SHT31;61339;50.558;4.696;2023-07-20T06:22:47;17.74;75.59
73141;SHT31;61339;50.558;4.696;2023-07-20T06:25:13;17.85;75.12
73141;SHT31;61339;50.558;4.696;2023-07-20T06:27:38;17.87;73.97
73141;SHT31;61339;50.558;4.696;2023-07-20T06:30:04;17.89;74.48
73141;SHT31;61339;50.558;4.696;2023-07-20T06:32:30;17.95;74.61
73141;SHT31;61339;50.558;4.696;2023-07-20T06:34:55;18.06;74.59
73141;SHT31;61339;50.558;4.696;2023-07-20T06:37:21;18.25;74.06
73141;SHT31;61339;50.558;4.696;2023-07-20T06:39:46;18.26;73.73
73141;SHT31;61339;50.558;4.696;2023-07-20T06:42:12;18.26;73.73
73141;SHT31;61339;50.558;4.696;2023-07-20T06:44:37;18.21;73.30
73141;SHT31;61339;50.558;4.696;2023-07-20T06:47:03;18.71;71.71
73141;SHT31;61339;50.558;4.696;2023-07-20T06:49:28;19.63;69.09
73141;SHT31;61339;50.558;4.696;2023-07-20T06:51:54;20.38;66.18
73141;SHT31;61339;50.558;4.696;2023-07-20T06:54:19;19.94;66.37
73141;SHT31;61339;50.558;4.696;2023-07-20T06:56:45;19.82;66.61
73141;SHT31;61339;50.558;4.696;2023-07-20T06:59:11;20.58;64.59
73141;SHT31;61339;50.558;4.696;2023-07-20T07:01:36;20.99;63.22
73141;SHT31;61339;50.558;4.696;2023-07-20T07:04:01;20.57;64.54
73141;SHT31;61339;50.558;4.696;2023-07-20T07:06:27;20.09;65.87
73141;SHT31;61339;50.558;4.696;2023-07-20T07:08:55;19.85;66.55
73141;SHT31;61339;50.558;4.696;2023-07-20T07:11:21;19.58;66.62
73141;SHT31;61339;50.558;4.696;2023-07-20T07:13:47;19.39;67.12
73141;SHT31;61339;50.558;4.696;2023-07-20T07:16:14;19.34;66.99
73141;SHT31;61339;50.558;4.696;2023-07-20T07:18:43;19.34;66.67
73141;SHT31;61339;50.558;4.696;2023-07-20T07:21:09;19.27;66.63
73141;SHT31;61339;50.558;4.696;2023-07-20T07:23:34;19.17;66.95
73141;SHT31;61339;50.558;4.696;2023-07-20T07:25:59;19.06;67.15
73141;SHT31;61339;50.558;4.696;2023-07-20T07:28:25;18.97;67.40
73141;SHT31;61339;50.558;4.696;2023-07-20T07:30:50;18.90;67.31
73141;SHT31;61339;50.558;4.696;2023-07-20T07:33:16;18.94;67.64
73141;SHT31;61339;50.558;4.696;2023-07-20T07:35:42;19.04;66.49
73141;SHT31;61339;50.558;4.696;2023-07-20T07:38:07;19.21;66.15
73141;SHT31;61339;50.558;4.696;2023-07-20T07:40:33;20.18;63.16
73141;SHT31;61339;50.558;4.696;2023-07-20T07:42:58;21.78;57.62
73141;SHT31;61339;50.558;4.696;2023-07-20T07:45:24;22.97;54.71
73141;SHT31;61339;50.558;4.696;2023-07-20T07:47:49;23.75;50.51
73141;SHT31;61339;50.558;4.696;2023-07-20T07:50:14;23.99;49.46
73141;SHT31;61339;50.558;4.696;2023-07-20T07:52:40;23.13;51.50
73141;SHT31;61339;50.558;4.696;2023-07-20T07:55:05;22.33;53.43
73141;SHT31;61339;50.558;4.696;2023-07-20T07:57:31;21.67;54.91
73141;SHT31;61339;50.558;4.696;2023-07-20T07:59:56;21.63;55.70
73141;SHT31;61339;50.558;4.696;2023-07-20T08:02:22;21.49;56.79
73141;SHT31;61339;50.558;4.696;2023-07-20T08:04:47;21.50;56.86
73141;SHT31;61339;50.558;4.696;2023-07-20T08:07:13;21.70;56.53
73141;SHT31;61339;50.558;4.696;2023-07-20T08:09:38;22.15;54.74
73141;SHT31;61339;50.558;4.696;2023-07-20T08:12:04;22.08;55.33
73141;SHT31;61339;50.558;4.696;2023-07-20T08:14:29;22.57;54.06
73141;SHT31;61339;50.558;4.696;2023-07-20T08:16:55;23.96;50.09
73141;SHT31;61339;50.558;4.696;2023-07-20T08:19:20;23.98;49.81
73141;SHT31;61339;50.558;4.696;2023-07-20T08:21:46;23.22;50.28
73141;SHT31;61339;50.558;4.696;2023-07-20T08:24:11;22.74;51.52
73141;SHT31;61339;50.558;4.696;2023-07-20T08:26:36;22.51;53.05
73141;SHT31;61339;50.558;4.696;2023-07-20T08:29:02;22.31;54.46
73141;SHT31;61339;50.558;4.696;2023-07-20T08:31:27;22.05;55.78
73141;SHT31;61339;50.558;4.696;2023-07-20T08:33:53;21.75;56.48
73141;SHT31;61339;50.558;4.696;2023-07-20T08:36:19;21.51;56.34
73141;SHT31;61339;50.558;4.696;2023-07-20T08:38:44;23.52;51.99
73141;SHT31;61339;50.558;4.696;2023-07-20T08:41:09;25.12;47.71
73141;SHT31;61339;50.558;4.696;2023-07-20T08:43:37;26.11;44.83
73141;SHT31;61339;50.558;4.696;2023-07-20T08:46:03;26.99;43.43
73141;SHT31;61339;50.558;4.696;2023-07-20T08:48:30;27.71;41.54
73141;SHT31;61339;50.558;4.696;2023-07-20T08:50:56;28.17;38.46
73141;SHT31;61339;50.558;4.696;2023-07-20T08:53:22;28.13;38.16
73141;SHT31;61339;50.558;4.696;2023-07-20T08:55:50;29.07;36.71
73141;SHT31;61339;50.558;4.696;2023-07-20T08:58:17;29.82;35.51
73141;SHT31;61339;50.558;4.696;2023-07-20T09:00:43;28.66;35.48
73141;SHT31;61339;50.558;4.696;2023-07-20T09:03:08;26.58;41.08
73141;SHT31;61339;50.558;4.696;2023-07-20T09:05:35;25.81;42.99
73141;SHT31;61339;50.558;4.696;2023-07-20T09:08:01;25.66;44.19
73141;SHT31;61339;50.558;4.696;2023-07-20T09:10:28;25.47;44.42
73141;SHT31;61339;50.558;4.696;2023-07-20T09:12:53;27.11;41.08
73141;SHT31;61339;50.558;4.696;2023-07-20T09:15:20;27.86;39.24
73141;SHT31;61339;50.558;4.696;2023-07-20T09:17:46;28.68;37.59
73141;SHT31;61339;50.558;4.696;2023-07-20T09:20:14;28.52;37.79
73141;SHT31;61339;50.558;4.696;2023-07-20T09:22:40;28.64;37.39
73141;SHT31;61339;50.558;4.696;2023-07-20T09:25:16;29.43;36.23
73141;SHT31;61339;50.558;4.696;2023-07-20T09:27:46;29.79;35.08
73141;SHT31;61339;50.558;4.696;2023-07-20T09:30:13;29.22;36.42
73141;SHT31;61339;50.558;4.696;2023-07-20T09:32:42;28.42;37.77
73141;SHT31;61339;50.558;4.696;2023-07-20T09:35:19;28.75;38.01
73141;SHT31;61339;50.558;4.696;2023-07-20T09:37:54;29.55;36.19
73141;SHT31;61339;50.558;4.696;2023-07-20T09:40:20;30.49;33.75
73141;SHT31;61339;50.558;4.696;2023-07-20T09:42:46;30.99;32.70
73141;SHT31;61339;50.558;4.696;2023-07-20T09:45:13;31.16;31.97
73141;SHT31;61339;50.558;4.696;2023-07-20T09:47:39;29.72;34.14
73141;SHT31;61339;50.558;4.696;2023-07-20T09:50:06;29.00;35.51
73141;SHT31;61339;50.558;4.696;2023-07-20T09:52:38;28.35;36.71
73141;SHT31;61339;50.558;4.696;2023-07-20T09:55:05;27.85;38.21
73141;SHT31;61339;50.558;4.696;2023-07-20T09:57:33;27.33;38.70
73141;SHT31;61339;50.558;4.696;2023-07-20T09:59:58;27.69;37.99
73141;SHT31;61339;50.558;4.696;2023-07-20T10:02:32;29.32;35.42
73141;SHT31;61339;50.558;4.696;2023-07-20T10:05:02;30.41;33.15
73141;SHT31;61339;50.558;4.696;2023-07-20T10:07:30;30.49;32.26
73141;SHT31;61339;50.558;4.696;2023-07-20T10:09:56;30.35;32.80
73141;SHT31;61339;50.558;4.696;2023-07-20T10:12:25;29.35;35.22
73141;SHT31;61339;50.558;4.696;2023-07-20T10:15:13;29.10;35.62
73141;SHT31;61339;50.558;4.696;2023-07-20T10:17:48;28.57;36.60
73141;SHT31;61339;50.558;4.696;2023-07-20T10:20:16;28.08;37.62
73141;SHT31;61339;50.558;4.696;2023-07-20T10:22:46;27.64;38.22
73141;SHT31;61339;50.558;4.696;2023-07-20T10:25:12;27.43;38.35
73141;SHT31;61339;50.558;4.696;2023-07-20T10:27:39;27.30;38.80
73141;SHT31;61339;50.558;4.696;2023-07-20T10:30:06;27.23;38.55
73141;SHT31;61339;50.558;4.696;2023-07-20T10:32:31;27.86;38.24
73141;SHT31;61339;50.558;4.696;2023-07-20T10:34:57;28.08;37.04
73141;SHT31;61339;50.558;4.696;2023-07-20T10:37:48;27.78;38.05
73141;SHT31;61339;50.558;4.696;2023-07-20T10:40:38;27.89;37.05
73141;SHT31;61339;50.558;4.696;2023-07-20T10:43:08;27.84;36.34
73141;SHT31;61339;50.558;4.696;2023-07-20T10:45:41;27.00;37.55
73141;SHT31;61339;50.558;4.696;2023-07-20T10:48:13;26.89;37.99
73141;SHT31;61339;50.558;4.696;2023-07-20T10:50:40;26.86;38.70
73141;SHT31;61339;50.558;4.696;2023-07-20T10:53:17;26.86;38.53
73141;SHT31;61339;50.558;4.696;2023-07-20T10:55:43;26.87;39.15
73141;SHT31;61339;50.558;4.696;2023-07-20T10:58:11;26.90;38.58
73141;SHT31;61339;50.558;4.696;2023-07-20T11:00:37;28.33;36.31
73141;SHT31;61339;50.558;4.696;2023-07-20T11:03:04;29.61;33.71
73141;SHT31;61339;50.558;4.696;2023-07-20T11:05:33;30.16;33.74
73141;SHT31;61339;50.558;4.696;2023-07-20T11:08:00;31.51;31.73
73141;SHT31;61339;50.558;4.696;2023-07-20T11:10:25;32.48;30.46
73141;SHT31;61339;50.558;4.696;2023-07-20T11:13:20;31.81;30.86
73141;SHT31;61339;50.558;4.696;2023-07-20T11:18:25;29.59;33.60
73141;SHT31;61339;50.558;4.696;2023-07-20T11:20:51;29.32;34.51
73141;SHT31;61339;50.558;4.696;2023-07-20T11:23:17;29.19;34.41
73141;SHT31;61339;50.558;4.696;2023-07-20T11:25:42;28.78;35.21
73141;SHT31;61339;50.558;4.696;2023-07-20T11:28:09;28.53;36.08
73141;SHT31;61339;50.558;4.696;2023-07-20T11:30:37;28.22;36.13
73141;SHT31;61339;50.558;4.696;2023-07-20T11:33:03;27.82;37.16
73141;SHT31;61339;50.558;4.696;2023-07-20T11:35:29;27.68;37.53
73141;SHT31;61339;50.558;4.696;2023-07-20T11:37:55;27.34;38.25
73141;SHT31;61339;50.558;4.696;2023-07-20T11:40:22;27.20;37.73
73141;SHT31;61339;50.558;4.696;2023-07-20T11:42:47;27.20;37.85
73141;SHT31;61339;50.558;4.696;2023-07-20T11:45:19;27.23;37.44
73141;SHT31;61339;50.558;4.696;2023-07-20T11:47:44;27.16;36.97
73141;SHT31;61339;50.558;4.696;2023-07-20T11:50:10;27.59;36.56
73141;SHT31;61339;50.558;4.696;2023-07-20T11:52:39;30.13;33.56
73141;SHT31;61339;50.558;4.696;2023-07-20T11:55:06;31.81;30.46
73141;SHT31;61339;50.558;4.696;2023-07-20T11:57:32;32.73;29.36
73141;SHT31;61339;50.558;4.696;2023-07-20T12:00:00;33.45;27.24
73141;SHT31;61339;50.558;4.696;2023-07-20T12:02:29;32.29;29.04
73141;SHT31;61339;50.558;4.696;2023-07-20T12:04:54;33.51;28.04
73141;SHT31;61339;50.558;4.696;2023-07-20T12:07:21;33.53;27.68
73141;SHT31;61339;50.558;4.696;2023-07-20T12:10:10;31.98;29.70
73141;SHT31;61339;50.558;4.696;2023-07-20T12:12:43;30.74;31.57
73141;SHT31;61339;50.558;4.696;2023-07-20T12:15:22;30.04;32.45
73141;SHT31;61339;50.558;4.696;2023-07-20T12:17:52;31.03;30.65
73141;SHT31;61339;50.558;4.696;2023-07-20T12:20:32;31.40;29.66
73141;SHT31;61339;50.558;4.696;2023-07-20T12:23:00;30.95;30.61
73141;SHT31;61339;50.558;4.696;2023-07-20T12:28:08;30.75;31.38
73141;SHT31;61339;50.558;4.696;2023-07-20T12:30:33;31.59;30.20
73141;SHT31;61339;50.558;4.696;2023-07-20T12:32:59;33.94;26.71
73141;SHT31;61339;50.558;4.696;2023-07-20T12:35:24;33.61;27.46
73141;SHT31;61339;50.558;4.696;2023-07-20T12:37:50;31.50;28.43
73141;SHT31;61339;50.558;4.696;2023-07-20T12:40:17;30.78;30.89
73141;SHT31;61339;50.558;4.696;2023-07-20T12:42:42;30.67;31.08
73141;SHT31;61339;50.558;4.696;2023-07-20T12:45:08;30.44;30.99
73141;SHT31;61339;50.558;4.696;2023-07-20T12:47:34;31.67;30.15
73141;SHT31;61339;50.558;4.696;2023-07-20T12:49:59;33.07;27.98
73141;SHT31;61339;50.558;4.696;2023-07-20T12:52:25;34.20;26.29
73141;SHT31;61339;50.558;4.696;2023-07-20T12:54:50;34.32;25.39
73141;SHT31;61339;50.558;4.696;2023-07-20T12:57:16;34.54;24.86
73141;SHT31;61339;50.558;4.696;2023-07-20T12:59:42;33.51;26.44
73141;SHT31;61339;50.558;4.696;2023-07-20T13:02:07;31.95;28.10
73141;SHT31;61339;50.558;4.696;2023-07-20T13:04:32;31.09;29.28
73141;SHT31;61339;50.558;4.696;2023-07-20T13:06:58;30.96;29.59
73141;SHT31;61339;50.558;4.696;2023-07-20T13:09:24;30.89;30.11
73141;SHT31;61339;50.558;4.696;2023-07-20T13:11:50;30.58;30.99
73141;SHT31;61339;50.558;4.696;2023-07-20T13:14:16;30.03;31.29
73141;SHT31;61339;50.558;4.696;2023-07-20T13:16:41;29.48;31.69
73141;SHT31;61339;50.558;4.696;2023-07-20T13:19:07;29.26;32.27
73141;SHT31;61339;50.558;4.696;2023-07-20T13:21:32;29.15;32.88
73141;SHT31;61339;50.558;4.696;2023-07-20T13:23:58;29.22;32.54
73141;SHT31;61339;50.558;4.696;2023-07-20T13:26:23;29.16;31.66
73141;SHT31;61339;50.558;4.696;2023-07-20T13:28:49;29.04;31.96
73141;SHT31;61339;50.558;4.696;2023-07-20T13:31:14;28.87;32.20
73141;SHT31;61339;50.558;4.696;2023-07-20T13:33:39;28.97;32.83
73141;SHT31;61339;50.558;4.696;2023-07-20T13:36:05;28.95;32.23
73141;SHT31;61339;50.558;4.696;2023-07-20T13:38:33;29.04;32.13
73141;SHT31;61339;50.558;4.696;2023-07-20T13:40:58;28.87;32.42
73141;SHT31;61339;50.558;4.696;2023-07-20T13:43:24;28.66;33.20
73141;SHT31;61339;50.558;4.696;2023-07-20T13:45:50;28.47;33.86
73141;SHT31;61339;50.558;4.696;2023-07-20T13:48:15;28.37;34.03
73141;SHT31;61339;50.558;4.696;2023-07-20T13:50:44;28.44;34.38
73141;SHT31;61339;50.558;4.696;2023-07-20T13:53:10;28.44;34.09
73141;SHT31;61339;50.558;4.696;2023-07-20T13:55:35;28.47;34.46
73141;SHT31;61339;50.558;4.696;2023-07-20T13:58:02;28.60;34.56
73141;SHT31;61339;50.558;4.696;2023-07-20T14:00:27;28.59;33.69
73141;SHT31;61339;50.558;4.696;2023-07-20T14:02:58;28.49;33.14
73141;SHT31;61339;50.558;4.696;2023-07-20T14:05:23;28.31;33.14
73141;SHT31;61339;50.558;4.696;2023-07-20T14:07:48;28.31;34.08
73141;SHT31;61339;50.558;4.696;2023-07-20T14:10:15;28.54;34.53
73141;SHT31;61339;50.558;4.696;2023-07-20T14:12:40;28.73;34.43
73141;SHT31;61339;50.558;4.696;2023-07-20T14:15:06;28.66;33.39
73141;SHT31;61339;50.558;4.696;2023-07-20T14:17:31;28.60;33.40
73141;SHT31;61339;50.558;4.696;2023-07-20T14:19:57;28.59;34.03
73141;SHT31;61339;50.558;4.696;2023-07-20T14:22:22;28.31;34.12
73141;SHT31;61339;50.558;4.696;2023-07-20T14:24:48;28.22;34.19
73141;SHT31;61339;50.558;4.696;2023-07-20T14:27:13;28.19;32.89
73141;SHT31;61339;50.558;4.696;2023-07-20T14:29:39;28.19;33.61
73141;SHT31;61339;50.558;4.696;2023-07-20T14:32:04;28.19;34.32
73141;SHT31;61339;50.558;4.696;2023-07-20T14:34:31;28.12;34.34
73141;SHT31;61339;50.558;4.696;2023-07-20T14:36:59;27.95;34.00
73141;SHT31;61339;50.558;4.696;2023-07-20T14:39:24;27.84;34.73
73141;SHT31;61339;50.558;4.696;2023-07-20T14:41:50;27.72;35.20
73141;SHT31;61339;50.558;4.696;2023-07-20T14:44:16;27.72;35.65
73141;SHT31;61339;50.558;4.696;2023-07-20T14:46:41;27.72;35.79
73141;SHT31;61339;50.558;4.696;2023-07-20T14:49:07;27.61;35.86
73141;SHT31;61339;50.558;4.696;2023-07-20T14:51:32;27.48;35.63
73141;SHT31;61339;50.558;4.696;2023-07-20T14:53:58;27.55;35.54
73141;SHT31;61339;50.558;4.696;2023-07-20T14:56:24;27.57;36.32
73141;SHT31;61339;50.558;4.696;2023-07-20T14:58:50;27.45;36.12
73141;SHT31;61339;50.558;4.696;2023-07-20T15:01:15;27.47;35.48
73141;SHT31;61339;50.558;4.696;2023-07-20T15:03:40;27.40;36.36
73141;SHT31;61339;50.558;4.696;2023-07-20T15:06:10;27.31;36.11
73141;SHT31;61339;50.558;4.696;2023-07-20T15:08:36;27.38;36.38
73141;SHT31;61339;50.558;4.696;2023-07-20T15:11:02;27.41;35.46
73141;SHT31;61339;50.558;4.696;2023-07-20T15:13:27;27.38;35.82
73141;SHT31;61339;50.558;4.696;2023-07-20T15:15:52;27.30;36.22
73141;SHT31;61339;50.558;4.696;2023-07-20T15:18:18;27.14;35.62
73141;SHT31;61339;50.558;4.696;2023-07-20T15:20:46;27.03;35.73
73141;SHT31;61339;50.558;4.696;2023-07-20T15:23:13;27.03;35.75
73141;SHT31;61339;50.558;4.696;2023-07-20T15:25:38;27.10;36.47
73141;SHT31;61339;50.558;4.696;2023-07-20T15:28:04;27.08;37.23
73141;SHT31;61339;50.558;4.696;2023-07-20T15:30:29;27.13;36.49
73141;SHT31;61339;50.558;4.696;2023-07-20T15:32:55;27.11;37.06
73141;SHT31;61339;50.558;4.696;2023-07-20T15:35:24;27.04;36.86
73141;SHT31;61339;50.558;4.696;2023-07-20T15:37:49;26.89;36.49
73141;SHT31;61339;50.558;4.696;2023-07-20T15:40:15;26.68;38.60